createdAt,value
2023-03-27T00:02:25.689Z,101903.97
2023-03-27T00:04:54.853Z,101915.44
2023-03-27T00:07:22.402Z,101910.25
2023-03-27T00:09:49.326Z,101924.41
2023-03-27T00:12:16.332Z,101922.75
2023-03-27T00:14:43.338Z,101918.44
2023-03-27T00:17:11.370Z,101935.16
2023-03-27T00:19:39.096Z,101925.53
2023-03-27T00:22:06.045Z,101926.47
2023-03-27T00:24:34.783Z,101925.63
2023-03-27T00:27:01.766Z,101930.09
2023-03-27T00:29:28.963Z,101924.84
2023-03-27T00:31:56.541Z,101938.19
2023-03-27T00:34:23.507Z,101940.84
2023-03-27T00:36:52.243Z,101941.81
2023-03-27T00:39:19.548Z,101947.09
2023-03-27T00:41:46.519Z,101944.44
2023-03-27T00:44:34.739Z,101946.38
2023-03-27T00:47:04.550Z,101956.09
2023-03-27T00:49:36.284Z,101952.50
2023-03-27T00:52:05.212Z,101955.28
2023-03-27T00:54:39.144Z,101948.25
2023-03-27T00:57:09.993Z,101954.44
2023-03-27T00:59:41.158Z,101947.44
2023-03-27T01:02:09.089Z,101952.75
2023-03-27T01:04:38.060Z,101948.47
2023-03-27T01:07:07.248Z,101950.19
2023-03-27T01:09:34.474Z,101951.97
2023-03-27T01:12:01.326Z,101951.09
2023-03-27T01:14:52.647Z,101954.69
2023-03-27T01:17:46.776Z,101958.19
2023-03-27T01:20:35.194Z,101961.75
2023-03-27T01:24:00.217Z,101952.94
2023-03-27T01:26:52.024Z,101955.66
2023-03-27T01:29:25.619Z,101961.78
2023-03-27T01:32:30.365Z,101962.66
2023-03-27T01:35:26.026Z,101960.09
2023-03-27T01:38:04.862Z,101952.16
2023-03-27T01:40:47.887Z,101969.78
2023-03-27T01:43:19.773Z,101968.94
2023-03-27T01:46:07.171Z,101978.59
2023-03-27T01:48:43.136Z,101967.22
2023-03-27T01:51:17.256Z,101973.34
2023-03-27T01:53:52.946Z,101969.78
2023-03-27T01:56:31.717Z,101974.22
2023-03-27T01:59:09.738Z,101974.22
2023-03-27T02:01:40.353Z,101981.25
2023-03-27T02:04:15.940Z,101967.16
2023-03-27T02:06:50.663Z,101971.56
2023-03-27T02:09:24.322Z,101964.50
2023-03-27T02:11:59.361Z,101969.78
2023-03-27T02:14:33.977Z,101973.34
2023-03-27T02:17:10.468Z,101983.03
2023-03-27T02:19:57.225Z,101983.09
2023-03-27T02:22:38.046Z,101981.34
2023-03-27T02:25:24.627Z,101977.81
2023-03-27T02:28:03.366Z,101979.59
2023-03-27T02:30:34.271Z,101984.00
2023-03-27T02:33:30.319Z,101979.59
2023-03-27T02:36:00.762Z,101983.13
2023-03-27T02:38:40.198Z,101981.34
2023-03-27T02:41:48.566Z,101986.63
2023-03-27T02:44:21.320Z,101975.19
2023-03-27T02:46:58.061Z,101989.28
2023-03-27T02:49:49.094Z,101989.28
2023-03-27T02:52:52.396Z,101992.84
2023-03-27T02:55:35.930Z,101992.81
2023-03-27T02:58:11.383Z,101991.84
2023-03-27T03:00:44.116Z,101993.69
2023-03-27T03:03:19.366Z,101994.56
2023-03-27T03:05:46.768Z,101991.06
2023-03-27T03:08:15.051Z,101996.31
2023-03-27T03:10:46.341Z,102000.66
2023-03-27T03:13:13.349Z,101995.44
2023-03-27T03:15:40.611Z,101994.47
2023-03-27T03:18:08.131Z,101995.34
2023-03-27T03:20:35.836Z,101993.53
2023-03-27T03:23:03.167Z,101988.25
2023-03-27T03:25:31.700Z,101990.06
2023-03-27T03:27:58.770Z,101992.69
2023-03-27T03:30:27.799Z,101991.81
2023-03-27T03:32:58.169Z,101992.69
2023-03-27T03:35:25.870Z,101989.19
2023-03-27T03:37:58.070Z,101994.47
2023-03-27T03:40:24.980Z,101993.53
2023-03-27T03:42:53.012Z,101999.69
2023-03-27T03:45:20.535Z,101997.13
2023-03-27T03:47:48.086Z,102008.56
2023-03-27T03:50:15.200Z,102004.13
2023-03-27T03:52:42.294Z,102006.75
2023-03-27T03:55:12.813Z,102018.28
2023-03-27T03:57:39.791Z,102018.28
2023-03-27T04:00:12.527Z,102021.72
2023-03-27T04:02:41.691Z,102018.28
2023-03-27T04:05:10.100Z,102015.56
2023-03-27T04:07:38.002Z,102019.09
2023-03-27T04:10:05.387Z,102019.00
2023-03-27T04:12:32.280Z,102017.25
2023-03-27T04:14:59.231Z,102020.81
2023-03-27T04:17:26.878Z,102024.38
2023-03-27T04:19:57.617Z,102029.66
2023-03-27T04:22:24.893Z,102025.19
2023-03-27T04:24:51.935Z,102027.78
2023-03-27T04:27:18.885Z,102024.97
2023-03-27T04:29:47.704Z,102026.47
2023-03-27T04:32:19.530Z,102031.34
2023-03-27T04:34:50.557Z,102024.75
2023-03-27T04:37:23.166Z,102019.22
2023-03-27T04:39:50.666Z,102022.56
2023-03-27T04:42:17.573Z,102030.31
2023-03-27T04:44:46.460Z,102031.97
2023-03-27T04:47:13.656Z,102026.56
2023-03-27T04:49:47.190Z,102043.22
2023-03-27T04:52:14.492Z,102040.44
2023-03-27T04:54:42.375Z,102041.25
2023-03-27T04:57:10.525Z,102043.84
2023-03-27T04:59:37.683Z,102043.72
2023-03-27T05:02:05.962Z,102050.75
2023-03-27T05:04:33.043Z,102053.34
2023-03-27T05:07:00.620Z,102056.47
2023-03-27T05:09:27.656Z,102064.63
2023-03-27T05:11:54.549Z,102073.63
2023-03-27T05:14:23.365Z,102075.97
2023-03-27T05:16:52.562Z,102076.53
2023-03-27T05:19:20.461Z,102075.50
2023-03-27T05:21:47.628Z,102079.66
2023-03-27T05:24:16.006Z,102079.66
2023-03-27T05:26:43.641Z,102091.63
2023-03-27T05:29:10.816Z,102091.25
2023-03-27T05:31:37.808Z,102097.66
2023-03-27T05:34:06.057Z,102098.47
2023-03-27T05:36:33.304Z,102101.06
2023-03-27T05:39:00.345Z,102097.78
2023-03-27T05:41:27.285Z,102105.75
2023-03-27T05:43:54.344Z,102100.56
2023-03-27T05:46:21.793Z,102105.13
2023-03-27T05:48:49.241Z,102111.25
2023-03-27T05:51:16.335Z,102101.59
2023-03-27T05:53:43.416Z,102100.72
2023-03-27T05:56:10.882Z,102106.91
2023-03-27T05:58:39.101Z,102102.50
2023-03-27T06:01:06.271Z,102100.78
2023-03-27T06:03:36.924Z,102111.31
2023-03-27T06:06:11.776Z,102104.34
2023-03-27T06:08:39.170Z,102103.38
2023-03-27T06:11:13.657Z,102113.19
2023-03-27T06:13:40.691Z,102105.31
2023-03-27T06:16:08.392Z,102113.28
2023-03-27T06:18:35.486Z,102114.22
2023-03-27T06:21:02.421Z,102123.84
2023-03-27T06:23:29.994Z,102124.69
2023-03-27T06:25:57.172Z,102133.38
2023-03-27T06:28:24.378Z,102125.94
2023-03-27T06:30:51.531Z,102124.06
2023-03-27T06:33:18.846Z,102133.38
2023-03-27T06:35:53.449Z,102136.13
2023-03-27T06:38:21.567Z,102129.44
2023-03-27T06:40:48.539Z,102139.44
2023-03-27T06:43:19.286Z,102142.66
2023-03-27T06:45:50.223Z,102141.28
2023-03-27T06:48:21.921Z,102136.66
2023-03-27T06:50:52.038Z,102138.31
2023-03-27T06:53:27.329Z,102140.91
2023-03-27T06:55:55.808Z,102138.19
2023-03-27T06:58:23.072Z,102152.22
2023-03-27T07:00:50.595Z,102152.19
2023-03-27T07:03:19.518Z,102155.66
2023-03-27T07:05:46.680Z,102161.88
2023-03-27T07:08:23.225Z,102160.94
2023-03-27T07:11:03.822Z,102160.84
2023-03-27T07:13:38.481Z,102163.47
2023-03-27T07:16:06.269Z,102163.41
2023-03-27T07:18:33.365Z,102158.94
2023-03-27T07:21:00.875Z,102157.97
2023-03-27T07:23:28.186Z,102165.00
2023-03-27T07:26:00.152Z,102154.41
2023-03-27T07:28:28.286Z,102157.88
2023-03-27T07:30:55.556Z,102157.81
2023-03-27T07:33:23.173Z,102156.94
2023-03-27T07:35:50.309Z,102156.09
2023-03-27T07:38:18.657Z,102128.88
2023-03-27T07:40:46.826Z,102148.97
2023-03-27T07:43:14.654Z,102149.84
2023-03-27T07:45:42.427Z,102151.53
2023-03-27T07:48:15.214Z,102157.56
2023-03-27T07:50:43.478Z,102158.41
2023-03-27T07:53:34.305Z,102160.13
2023-03-27T07:56:01.018Z,102162.75
2023-03-27T07:58:28.257Z,102154.81
2023-03-27T08:01:02.700Z,102154.72
2023-03-27T08:03:31.356Z,102152.91
2023-03-27T08:06:00.570Z,102160.81
2023-03-27T08:08:28.801Z,102156.38
2023-03-27T08:10:57.468Z,102156.28
2023-03-27T08:13:24.752Z,102149.19
2023-03-27T08:15:52.195Z,102154.41
2023-03-27T08:18:19.363Z,102153.47
2023-03-27T08:20:48.191Z,102161.31
2023-03-27T08:23:15.707Z,102155.91
2023-03-27T08:25:43.226Z,102157.66
2023-03-27T08:28:10.250Z,102159.34
2023-03-27T08:30:37.660Z,102161.03
2023-03-27T08:33:05.253Z,102162.72
2023-03-27T08:35:32.822Z,102160.00
2023-03-27T08:37:59.785Z,102152.84
2023-03-27T08:40:29.534Z,102151.88
2023-03-27T08:43:02.398Z,102149.22
2023-03-27T08:45:55.107Z,102155.31
2023-03-27T08:48:51.162Z,102161.47
2023-03-27T08:51:25.715Z,102155.28
2023-03-27T08:54:08.363Z,102156.81
2023-03-27T08:56:37.939Z,102155.03
2023-03-27T08:59:12.089Z,102155.84
2023-03-27T09:01:51.558Z,102160.09
2023-03-27T09:04:32.293Z,102153.84
2023-03-27T09:07:29.919Z,102149.38
2023-03-27T09:09:59.903Z,102153.63
2023-03-27T09:13:05.579Z,102150.09
2023-03-27T09:15:48.641Z,102157.06
2023-03-27T09:18:31.595Z,102154.41
2023-03-27T09:21:20.179Z,102149.88
2023-03-27T09:23:49.534Z,102151.59
2023-03-27T09:26:36.255Z,102147.97
2023-03-27T09:29:22.615Z,102148.78
2023-03-27T09:31:52.590Z,102148.78
2023-03-27T09:34:28.072Z,102146.09
2023-03-27T09:36:56.338Z,102140.72
2023-03-27T09:39:32.946Z,102142.66
2023-03-27T09:42:09.615Z,102151.28
2023-03-27T09:44:41.995Z,102145.13
2023-03-27T09:48:01.790Z,102143.97
2023-03-27T09:50:41.883Z,102135.31
2023-03-27T09:53:10.801Z,102140.44
2023-03-27T09:55:46.149Z,102140.47
2023-03-27T09:58:31.513Z,102142.19
2023-03-27T10:01:17.303Z,102137.69
2023-03-27T10:03:53.437Z,102141.13
2023-03-27T10:06:31.358Z,102135.66
2023-03-27T10:09:07.482Z,102135.50
2023-03-27T10:11:36.396Z,102130.94
2023-03-27T10:14:13.891Z,102134.44
2023-03-27T10:16:42.767Z,102134.44
2023-03-27T10:19:24.000Z,102132.50
2023-03-27T10:21:51.611Z,102139.47
2023-03-27T10:24:28.386Z,102129.75
2023-03-27T10:27:06.255Z,102127.00
2023-03-27T10:29:35.644Z,102124.34
2023-03-27T10:32:06.251Z,102134.16
2023-03-27T10:34:40.256Z,102130.56
2023-03-27T10:37:30.121Z,102132.22
2023-03-27T10:40:02.652Z,102125.06
2023-03-27T10:42:32.948Z,102124.97
2023-03-27T10:45:01.178Z,102126.72
2023-03-27T10:47:32.456Z,102126.53
2023-03-27T10:50:08.762Z,102123.88
2023-03-27T10:52:53.494Z,102127.16
2023-03-27T10:55:29.251Z,102121.81
2023-03-27T10:58:00.986Z,102125.19
2023-03-27T11:00:39.472Z,102123.25
2023-03-27T11:03:36.096Z,102121.41
2023-03-27T11:06:08.229Z,102116.91
2023-03-27T11:08:50.113Z,102117.59
2023-03-27T11:11:23.180Z,102121.09
2023-03-27T11:13:50.343Z,102112.19
2023-03-27T11:16:27.656Z,102117.38
2023-03-27T11:19:14.684Z,102122.56
2023-03-27T11:21:54.130Z,102116.31
2023-03-27T11:24:44.559Z,102118.84
2023-03-27T11:27:21.420Z,102125.88
2023-03-27T11:30:05.528Z,102118.84
2023-03-27T11:32:41.578Z,102118.81
2023-03-27T11:35:15.191Z,102122.28
2023-03-27T11:37:54.120Z,102120.47
2023-03-27T11:40:31.012Z,102115.97
2023-03-27T11:42:58.182Z,102123.91
2023-03-27T11:45:28.735Z,102114.91
2023-03-27T11:48:11.008Z,102114.06
2023-03-27T11:51:02.067Z,102110.53
2023-03-27T11:53:48.565Z,102108.81
2023-03-27T11:56:39.246Z,102102.63
2023-03-27T11:59:40.670Z,102099.94
2023-03-27T12:02:49.715Z,102102.59
2023-03-27T12:05:28.609Z,102104.38
2023-03-27T12:08:10.820Z,102098.16
2023-03-27T12:10:39.705Z,102102.59
2023-03-27T12:13:40.555Z,102099.06
2023-03-27T12:16:33.216Z,102103.47
2023-03-27T12:19:10.755Z,102086.69
2023-03-27T12:21:47.029Z,102090.19
2023-03-27T12:24:25.818Z,102093.69
2023-03-27T12:27:05.872Z,102086.78
2023-03-27T12:30:03.569Z,102102.59
2023-03-27T12:32:39.675Z,102089.38
2023-03-27T12:35:21.426Z,102088.47
2023-03-27T12:37:59.233Z,102090.25
2023-03-27T12:40:41.512Z,102089.38
2023-03-27T12:43:27.260Z,102086.72
2023-03-27T12:46:25.382Z,102079.63
2023-03-27T12:49:14.345Z,102073.47
2023-03-27T12:52:04.820Z,102076.88
2023-03-27T12:54:34.536Z,102070.75
2023-03-27T12:57:25.452Z,102067.25
2023-03-27T12:59:59.542Z,102067.16
2023-03-27T13:02:26.796Z,102068.91
2023-03-27T13:05:35.730Z,102045.91
2023-03-27T13:08:39.353Z,102065.34
2023-03-27T13:11:27.696Z,102060.03
2023-03-27T13:14:27.538Z,102057.31
2023-03-27T13:17:12.892Z,102065.34
2023-03-27T13:19:58.633Z,102060.88
2023-03-27T13:22:25.674Z,102053.00
2023-03-27T13:25:16.355Z,102049.44
2023-03-27T13:28:11.175Z,102047.56
2023-03-27T13:30:44.373Z,102048.44
2023-03-27T13:33:36.204Z,102039.66
2023-03-27T13:36:25.079Z,102031.78
2023-03-27T13:38:55.395Z,102033.66
2023-03-27T13:41:43.940Z,102028.38
2023-03-27T13:44:16.020Z,102031.13
2023-03-27T13:46:50.005Z,102020.44
2023-03-27T13:49:35.524Z,102022.28
2023-03-27T13:52:17.333Z,102012.56
2023-03-27T13:55:11.141Z,102002.03
2023-03-27T13:58:02.879Z,101998.53
2023-03-27T14:00:29.972Z,102003.84
2023-03-27T14:03:35.513Z,102002.97
2023-03-27T14:06:09.975Z,101997.75
2023-03-27T14:09:13.735Z,101998.63
2023-03-27T14:12:15.447Z,102005.78
2023-03-27T14:14:56.107Z,102002.19
2023-03-27T14:17:41.459Z,101988.00
2023-03-27T14:20:23.157Z,101987.28
2023-03-27T14:22:57.419Z,101991.56
2023-03-27T14:25:30.801Z,101989.88
2023-03-27T14:27:58.507Z,101979.38
2023-03-27T14:30:55.073Z,101977.72
2023-03-27T14:33:22.450Z,101962.81
2023-03-27T14:36:02.717Z,101970.81
2023-03-27T14:38:31.530Z,101970.81
2023-03-27T14:41:01.783Z,101965.59
2023-03-27T14:43:32.219Z,101970.03
2023-03-27T14:46:06.516Z,101956.84
2023-03-27T14:48:34.032Z,101955.09
2023-03-27T14:51:08.889Z,101955.09
2023-03-27T14:53:45.701Z,101957.81
2023-03-27T14:56:38.597Z,101956.13
2023-03-27T14:59:16.133Z,101958.78
2023-03-27T15:01:43.619Z,101957.09
2023-03-27T15:04:14.538Z,101951.78
2023-03-27T15:06:42.181Z,101951.91
2023-03-27T15:09:19.520Z,101947.50
2023-03-27T15:11:54.991Z,101952.88
2023-03-27T15:14:30.177Z,101944.97
2023-03-27T15:17:07.220Z,101941.34
2023-03-27T15:19:43.784Z,101941.28
2023-03-27T15:23:01.536Z,101933.41
2023-03-27T15:25:43.012Z,101925.47
2023-03-27T15:28:24.971Z,101928.78
2023-03-27T15:30:56.570Z,101920.56
2023-03-27T15:33:37.127Z,101919.28
2023-03-27T15:36:22.857Z,101923.41
2023-03-27T15:38:58.982Z,101921.56
2023-03-27T15:41:37.361Z,101915.16
2023-03-27T15:44:06.126Z,101912.66
2023-03-27T15:46:44.350Z,101911.19
2023-03-27T15:49:23.512Z,101906.13
2023-03-27T15:51:50.700Z,101902.69
2023-03-27T15:54:28.448Z,101898.88
2023-03-27T15:57:09.717Z,101892.53
2023-03-27T15:59:51.999Z,101882.75
2023-03-27T16:02:24.408Z,101886.19
2023-03-27T16:04:55.681Z,101884.31
2023-03-27T16:07:28.400Z,101875.59
2023-03-27T16:10:00.133Z,101870.16
2023-03-27T16:12:50.843Z,101863.00
2023-03-27T16:15:42.527Z,101865.53
2023-03-27T16:18:24.779Z,101865.50
2023-03-27T16:20:51.966Z,101865.53
2023-03-27T16:23:19.029Z,101859.44
2023-03-27T16:25:46.197Z,101856.81
2023-03-27T16:28:14.666Z,101858.47
2023-03-27T16:30:42.510Z,101849.66
2023-03-27T16:33:15.791Z,101858.53
2023-03-27T16:35:44.581Z,101847.00
2023-03-27T16:38:12.240Z,101846.09
2023-03-27T16:40:39.541Z,101841.69
2023-03-27T16:43:06.969Z,101845.53
2023-03-27T16:45:34.339Z,101838.47
2023-03-27T16:48:01.526Z,101837.25
2023-03-27T16:50:31.113Z,101840.75
2023-03-27T16:52:58.133Z,101840.94
2023-03-27T16:55:25.652Z,101835.25
2023-03-27T16:57:56.186Z,101829.53
2023-03-27T17:00:23.808Z,101836.09
2023-03-27T17:02:51.232Z,101838.19
2023-03-27T17:05:18.577Z,101835.84
2023-03-27T17:07:47.167Z,101831.72
2023-03-27T17:10:15.177Z,101827.53
2023-03-27T17:12:42.548Z,101832.22
2023-03-27T17:15:10.094Z,101828.88
2023-03-27T17:17:37.275Z,101822.91
2023-03-27T17:20:07.964Z,101818.63
2023-03-27T17:22:35.568Z,101818.88
2023-03-27T17:25:06.127Z,101823.53
2023-03-27T17:27:34.173Z,101823.75
2023-03-27T17:30:01.412Z,101819.56
2023-03-27T17:32:28.699Z,101823.31
2023-03-27T17:34:56.305Z,101822.97
2023-03-27T17:37:24.286Z,101810.25
2023-03-27T17:39:51.534Z,101813.28
2023-03-27T17:42:18.699Z,101810.28
2023-03-27T17:44:45.765Z,101800.19
2023-03-27T17:47:13.670Z,101805.91
2023-03-27T17:49:43.724Z,101796.78
2023-03-27T17:52:12.543Z,101805.50
2023-03-27T17:54:40.738Z,101798.63
2023-03-27T17:57:07.909Z,101792.31
2023-03-27T17:59:36.799Z,101779.16
2023-03-27T18:02:05.683Z,101786.81
2023-03-27T18:04:33.582Z,101787.59
2023-03-27T18:07:00.815Z,101789.47
2023-03-27T18:09:28.914Z,101788.50
2023-03-27T18:11:56.206Z,101791.91
2023-03-27T18:14:23.423Z,101777.63
2023-03-27T18:16:52.070Z,101779.16
2023-03-27T18:19:20.029Z,101775.03
2023-03-27T18:21:47.975Z,101776.63
2023-03-27T18:24:16.678Z,101781.69
2023-03-27T18:26:44.086Z,101775.75
2023-03-27T18:29:12.527Z,101776.13
2023-03-27T18:31:40.900Z,101781.78
2023-03-27T18:34:09.366Z,101780.56
2023-03-27T18:36:36.494Z,101783.47
2023-03-27T18:39:05.071Z,101780.44
2023-03-27T18:41:33.404Z,101779.53
2023-03-27T18:44:00.649Z,101777.69
2023-03-27T18:46:28.382Z,101783.56
2023-03-27T18:48:56.001Z,101782.69
2023-03-27T18:51:24.375Z,101779.25
2023-03-27T18:53:51.602Z,101777.41
2023-03-27T18:56:19.160Z,101779.50
2023-03-27T18:58:47.658Z,101783.69
2023-03-27T19:01:14.960Z,101775.53
2023-03-27T19:03:42.940Z,101778.00
2023-03-27T19:06:12.627Z,101773.28
2023-03-27T19:08:42.506Z,101773.81
2023-03-27T19:11:11.933Z,101771.72
2023-03-27T19:13:39.044Z,101769.34
2023-03-27T19:16:19.857Z,101766.19
2023-03-27T19:18:47.289Z,101773.53
2023-03-27T19:21:16.582Z,101768.50
2023-03-27T19:23:43.832Z,101765.25
2023-03-27T19:26:16.277Z,101768.66
2023-03-27T19:28:49.412Z,101765.00
2023-03-27T19:31:17.764Z,101767.31
2023-03-27T19:33:49.231Z,101765.97
2023-03-27T19:36:17.862Z,101762.09
2023-03-27T19:38:45.348Z,101759.19
2023-03-27T19:41:13.472Z,101756.16
2023-03-27T19:43:42.924Z,101760.06
2023-03-27T19:48:41.610Z,101764.66
2023-03-27T19:51:09.316Z,101766.09
2023-03-27T19:53:38.790Z,101761.31
2023-03-27T19:56:07.999Z,101751.03
2023-03-27T19:58:36.484Z,101754.97
2023-03-27T20:01:05.253Z,101759.13
2023-03-27T20:03:34.412Z,101750.94
2023-03-27T20:06:06.813Z,101747.13
2023-03-27T20:08:40.023Z,101752.28
2023-03-27T20:11:07.655Z,101740.50
2023-03-27T20:13:42.378Z,101732.31
2023-03-27T20:16:14.872Z,101734.88
2023-03-27T20:18:43.769Z,101732.06
2023-03-27T20:21:15.578Z,101729.13
2023-03-27T20:23:44.017Z,101728.63
2023-03-27T20:26:12.822Z,101723.31
2023-03-27T20:28:43.739Z,101717.00
2023-03-27T20:31:12.894Z,101716.69
2023-03-27T20:33:42.351Z,101710.34
2023-03-27T20:36:10.405Z,101703.97
2023-03-27T20:38:38.240Z,101707.28
2023-03-27T20:41:07.401Z,101707.13
2023-03-27T20:43:41.580Z,101704.25
2023-03-27T20:46:13.073Z,101698.78
2023-03-27T20:48:42.966Z,101699.66
2023-03-27T20:51:25.056Z,101695.09
2023-03-27T20:53:56.641Z,101695.06
2023-03-27T20:56:24.593Z,101692.28
2023-03-27T20:58:52.607Z,101692.22
2023-03-27T21:01:20.154Z,101699.25
2023-03-27T21:03:50.122Z,101685.03
2023-03-27T21:06:23.490Z,101682.38
2023-03-27T21:08:55.150Z,101673.47
2023-03-27T21:11:22.251Z,101668.97
2023-03-27T21:13:50.906Z,101664.00
2023-03-27T21:16:18.324Z,101668.88
2023-03-27T21:18:45.760Z,101671.72
2023-03-27T21:21:13.172Z,101668.28
2023-03-27T21:23:40.291Z,101658.53
2023-03-27T21:26:08.089Z,101660.97
2023-03-27T21:28:35.332Z,101648.31
2023-03-27T21:31:07.704Z,101646.31
2023-03-27T21:33:35.080Z,101648.63
2023-03-27T21:36:03.025Z,101651.69
2023-03-27T21:38:31.004Z,101648.47
2023-03-27T21:40:58.168Z,101640.75
2023-03-27T21:43:25.430Z,101633.94
2023-03-27T21:45:52.541Z,101634.19
2023-03-27T21:48:19.715Z,101637.13
2023-03-27T21:50:47.588Z,101637.28
2023-03-27T21:53:15.191Z,101637.44
2023-03-27T21:55:42.947Z,101629.69
2023-03-27T21:58:10.162Z,101625.47
2023-03-27T22:00:37.443Z,101621.22
2023-03-27T22:03:04.655Z,101623.09
2023-03-27T22:05:32.022Z,101626.81
2023-03-27T22:07:59.369Z,101621.75
2023-03-27T22:10:26.834Z,101628.13
2023-03-27T22:12:53.909Z,101623.81
2023-03-27T22:15:21.013Z,101618.69
2023-03-27T22:17:49.451Z,101618.84
2023-03-27T22:20:16.786Z,101610.25
2023-03-27T22:22:43.976Z,101616.56
2023-03-27T22:25:11.179Z,101614.88
2023-03-27T22:27:39.772Z,101605.38
2023-03-27T22:30:08.550Z,101610.81
2023-03-27T22:32:36.087Z,101598.66
2023-03-27T22:35:03.203Z,101601.44
2023-03-27T22:37:30.190Z,101598.06
2023-03-27T22:39:57.272Z,101598.16
2023-03-27T22:42:24.231Z,101593.84
2023-03-27T22:44:51.677Z,101593.13
2023-03-27T22:47:18.860Z,101586.25
2023-03-27T22:49:45.908Z,101580.16
2023-03-27T22:52:12.880Z,101576.88
2023-03-27T22:54:40.558Z,101584.91
2023-03-27T22:57:08.082Z,101584.19
2023-03-27T22:59:35.643Z,101580.75
2023-03-27T23:02:02.753Z,101571.19
2023-03-27T23:04:29.800Z,101572.97
2023-03-27T23:06:56.775Z,101577.50
2023-03-27T23:09:23.709Z,101575.00
2023-03-27T23:11:50.971Z,101566.34
2023-03-27T23:14:17.947Z,101557.59
2023-03-27T23:16:44.973Z,101558.66
2023-03-27T23:19:11.986Z,101548.22
2023-03-27T23:21:38.998Z,101545.66
2023-03-27T23:24:06.368Z,101551.88
2023-03-27T23:26:33.323Z,101558.13
2023-03-27T23:29:00.249Z,101551.09
2023-03-27T23:31:27.274Z,101552.97
2023-03-27T23:33:54.197Z,101548.75
2023-03-27T23:36:23.927Z,101544.38
2023-03-27T23:38:52.593Z,101547.09
2023-03-27T23:41:20.690Z,101545.47
2023-03-27T23:43:48.614Z,101535.88
2023-03-27T23:46:15.902Z,101542.13
2023-03-27T23:48:44.011Z,101537.84
2023-03-27T23:51:12.435Z,101539.69
2023-03-27T23:53:39.753Z,101534.63
2023-03-27T23:56:07.269Z,101522.28
2023-03-27T23:58:34.370Z,101525.06
